UAE145 OMDB-EHAM
Flight info
| Callsign | UAE145 |
|---|---|
| Flight time | N/A |
| Altitude | 34000 |
| Route | SENPA DCT ALPOB L768 VATIM L550 NOVPA J981 DATOK L550 GENIV L324 LAKTO DCT OTHON UN128 RDS UL609 MES DCT FSK UL608 DISOR DCT LONTA UL608 DOLEV DCT GUBOK DCT OBUTI DCT LAMSI DCT MAPOX L604 BIGGE DCT AMSAN T281 NORKU |
| Aircraft | B77W/H-SDE1E2E3FGHIJ2J3J4J5M1RWXY/LB1D1 |
Departure
| Time | N/A |
|---|---|
| Airport | Dubai International Airport (OMDB) |
Arrival
| Time | 2026-05-04 22:55 |
|---|---|
| Airport | Amsterdam Airport Schiphol (EHAM) |
| Time | Latitude | Longitude | Altitude | Speed | Heading |
|---|---|---|---|---|---|
| 2026-05-04 21:27 | 45.65881 | 17.14347 | 36052 ft | 467 kts | 319° |
| 2026-05-04 21:28 | 45.70929 | 17.08343 | 36046 ft | 475 kts | 319° |
| 2026-05-04 21:28 | 45.76045 | 17.02244 | 36045 ft | 482 kts | 319° |
| 2026-05-04 21:29 | 45.81124 | 16.96174 | 36042 ft | 485 kts | 319° |
| 2026-05-04 21:29 | 45.86316 | 16.89954 | 36041 ft | 487 kts | 319° |
| 2026-05-04 21:30 | 45.91514 | 16.83710 | 36034 ft | 487 kts | 319° |
| 2026-05-04 21:30 | 45.96707 | 16.77457 | 36036 ft | 487 kts | 319° |
| 2026-05-04 21:31 | 46.04475 | 16.68073 | 36033 ft | 487 kts | 319° |
| 2026-05-04 21:32 | 46.09652 | 16.61799 | 36030 ft | 486 kts | 319° |
| 2026-05-04 21:32 | 46.14810 | 16.55532 | 36032 ft | 485 kts | 319° |
| 2026-05-04 21:33 | 46.19972 | 16.49246 | 36035 ft | 485 kts | 318° |
| 2026-05-04 21:33 | 46.25093 | 16.42991 | 36024 ft | 485 kts | 318° |
| 2026-05-04 21:34 | 46.30245 | 16.36682 | 36020 ft | 485 kts | 318° |
| 2026-05-04 21:34 | 46.35393 | 16.30363 | 36021 ft | 485 kts | 318° |
| 2026-05-04 21:35 | 46.40585 | 16.24096 | 36011 ft | 486 kts | 320° |
| 2026-05-04 21:35 | 46.45945 | 16.18119 | 36018 ft | 487 kts | 321° |
| 2026-05-04 21:36 | 46.51349 | 16.12166 | 36011 ft | 488 kts | 321° |
| 2026-05-04 21:36 | 46.56735 | 16.06152 | 36015 ft | 488 kts | 321° |
| 2026-05-04 21:37 | 46.62102 | 16.00098 | 36005 ft | 489 kts | 320° |
| 2026-05-04 21:37 | 46.67363 | 15.94136 | 36008 ft | 489 kts | 320° |
| 2026-05-04 21:38 | 46.72733 | 15.88037 | 36016 ft | 490 kts | 320° |
| 2026-05-04 21:38 | 46.78106 | 15.81921 | 36011 ft | 490 kts | 320° |
| 2026-05-04 21:39 | 46.83476 | 15.75794 | 35984 ft | 490 kts | 320° |
| 2026-05-04 21:39 | 46.88850 | 15.69646 | 35989 ft | 491 kts | 320° |
| 2026-05-04 21:40 | 46.94222 | 15.63485 | 35992 ft | 491 kts | 320° |
| 2026-05-04 21:40 | 46.99593 | 15.57309 | 35995 ft | 491 kts | 320° |
| 2026-05-04 21:41 | 47.04948 | 15.51133 | 35993 ft | 491 kts | 320° |
| 2026-05-04 21:41 | 47.10317 | 15.44927 | 35996 ft | 491 kts | 320° |
| 2026-05-04 21:42 | 47.15684 | 15.38706 | 36000 ft | 492 kts | 320° |
| 2026-05-04 21:42 | 47.21056 | 15.32463 | 35996 ft | 492 kts | 320° |
| 2026-05-04 21:43 | 47.26424 | 15.26207 | 36003 ft | 492 kts | 320° |
| 2026-05-04 21:43 | 47.31786 | 15.19943 | 36001 ft | 492 kts | 320° |
| 2026-05-04 21:44 | 47.37147 | 15.13662 | 36007 ft | 492 kts | 320° |
| 2026-05-04 21:44 | 47.42510 | 15.07362 | 36009 ft | 493 kts | 319° |
| 2026-05-04 21:45 | 47.47828 | 15.01098 | 36007 ft | 493 kts | 319° |
| 2026-05-04 21:45 | 47.53106 | 14.94866 | 36002 ft | 493 kts | 319° |
| 2026-05-04 21:46 | 47.58460 | 14.88526 | 35997 ft | 493 kts | 319° |
| 2026-05-04 21:46 | 47.63844 | 14.82135 | 35998 ft | 493 kts | 319° |
| 2026-05-04 21:47 | 47.69193 | 14.75766 | 35977 ft | 493 kts | 319° |
| 2026-05-04 21:47 | 47.74535 | 14.69389 | 35978 ft | 493 kts | 319° |
| 2026-05-04 21:48 | 47.79840 | 14.63038 | 35966 ft | 493 kts | 319° |
| 2026-05-04 21:48 | 47.85176 | 14.56633 | 35956 ft | 493 kts | 319° |
| 2026-05-04 21:49 | 47.90506 | 14.50219 | 35949 ft | 493 kts | 319° |
| 2026-05-04 21:49 | 47.95842 | 14.43780 | 35931 ft | 493 kts | 319° |
| 2026-05-04 21:50 | 48.01155 | 14.37351 | 35936 ft | 493 kts | 319° |
| 2026-05-04 21:50 | 48.06483 | 14.30885 | 35919 ft | 494 kts | 318° |
| 2026-05-04 21:51 | 48.11810 | 14.24403 | 35922 ft | 494 kts | 318° |
| 2026-05-04 21:51 | 48.17135 | 14.17906 | 35913 ft | 494 kts | 318° |
| 2026-05-04 21:52 | 48.22464 | 14.11386 | 35919 ft | 495 kts | 318° |
| 2026-05-04 21:52 | 48.27796 | 14.04843 | 35937 ft | 495 kts | 318° |
| 2026-05-04 21:53 | 48.33044 | 13.98386 | 35944 ft | 495 kts | 318° |
| 2026-05-04 21:53 | 48.38371 | 13.91815 | 35937 ft | 495 kts | 318° |
| 2026-05-04 21:54 | 48.43690 | 13.85232 | 35952 ft | 495 kts | 317° |
| 2026-05-04 21:54 | 48.49015 | 13.78626 | 35950 ft | 496 kts | 317° |
| 2026-05-04 21:55 | 48.54343 | 13.71994 | 35945 ft | 497 kts | 317° |
| 2026-05-04 21:55 | 48.59671 | 13.65347 | 35944 ft | 497 kts | 317° |
| 2026-05-04 21:56 | 48.64956 | 13.58622 | 35947 ft | 495 kts | 314° |
| 2026-05-04 21:56 | 48.69600 | 13.50999 | 35942 ft | 493 kts | 308° |
| 2026-05-04 21:57 | 48.74022 | 13.43059 | 35963 ft | 493 kts | 307° |
| 2026-05-04 21:57 | 48.78445 | 13.35115 | 35940 ft | 493 kts | 307° |
| 2026-05-04 21:58 | 48.82888 | 13.27190 | 35942 ft | 493 kts | 307° |
| 2026-05-04 21:58 | 48.87334 | 13.19271 | 35940 ft | 493 kts | 308° |
| 2026-05-04 21:59 | 48.91776 | 13.11340 | 35941 ft | 493 kts | 307° |
| 2026-05-04 21:59 | 48.96217 | 13.03384 | 35940 ft | 493 kts | 307° |
| 2026-05-04 22:00 | 49.00577 | 12.95547 | 35944 ft | 494 kts | 307° |
| 2026-05-04 22:00 | 49.05009 | 12.87556 | 35949 ft | 494 kts | 307° |
| 2026-05-04 22:01 | 49.09403 | 12.79610 | 35941 ft | 493 kts | 307° |
| 2026-05-04 22:01 | 49.13825 | 12.71587 | 35940 ft | 493 kts | 307° |
| 2026-05-04 22:02 | 49.18232 | 12.63569 | 35934 ft | 493 kts | 307° |
| 2026-05-04 22:02 | 49.22632 | 12.55540 | 35936 ft | 493 kts | 307° |
| 2026-05-04 22:03 | 49.26311 | 12.48805 | 35948 ft | 492 kts | 307° |
| 2026-05-04 22:03 | 49.30674 | 12.40797 | 35956 ft | 493 kts | 307° |
| 2026-05-04 22:04 | 49.35062 | 12.32721 | 35943 ft | 493 kts | 307° |
| 2026-05-04 22:04 | 49.39449 | 12.24619 | 35944 ft | 494 kts | 307° |
| 2026-05-04 22:05 | 49.43833 | 12.16499 | 35962 ft | 494 kts | 307° |
| 2026-05-04 22:05 | 49.48216 | 12.08357 | 35957 ft | 495 kts | 306° |
| 2026-05-04 22:06 | 49.52602 | 12.00183 | 35962 ft | 495 kts | 306° |
| 2026-05-04 22:06 | 49.56914 | 11.92121 | 35976 ft | 496 kts | 306° |
| 2026-05-04 22:07 | 49.61292 | 11.83912 | 35993 ft | 496 kts | 306° |
| 2026-05-04 22:07 | 49.65664 | 11.75688 | 36003 ft | 495 kts | 306° |
| 2026-05-04 22:08 | 49.70023 | 11.67462 | 35983 ft | 495 kts | 306° |
| 2026-05-04 22:08 | 49.74374 | 11.59227 | 35976 ft | 494 kts | 306° |
| 2026-05-04 22:09 | 49.78706 | 11.51000 | 35965 ft | 493 kts | 306° |
| 2026-05-04 22:09 | 49.83034 | 11.42757 | 35971 ft | 492 kts | 306° |
| 2026-05-04 22:10 | 49.87343 | 11.34523 | 35988 ft | 492 kts | 305° |
| 2026-05-04 22:10 | 49.91647 | 11.26272 | 35976 ft | 491 kts | 305° |
| 2026-05-04 22:11 | 49.95939 | 11.18020 | 35981 ft | 491 kts | 305° |
| 2026-05-04 22:11 | 50.00211 | 11.09778 | 35973 ft | 490 kts | 305° |
| 2026-05-04 22:12 | 50.04483 | 11.01513 | 35975 ft | 490 kts | 305° |
| 2026-05-04 22:12 | 50.08673 | 10.93378 | 35959 ft | 492 kts | 304° |
| 2026-05-04 22:13 | 50.12952 | 10.85046 | 35966 ft | 493 kts | 304° |
| 2026-05-04 22:13 | 50.17208 | 10.76732 | 35969 ft | 494 kts | 304° |
| 2026-05-04 22:14 | 50.21489 | 10.68343 | 35974 ft | 494 kts | 304° |
| 2026-05-04 22:14 | 50.25759 | 10.59949 | 35985 ft | 494 kts | 304° |
| 2026-05-04 22:15 | 50.30037 | 10.51512 | 35976 ft | 495 kts | 304° |
| 2026-05-04 22:15 | 50.34309 | 10.43059 | 35978 ft | 496 kts | 304° |
| 2026-05-04 22:16 | 50.38581 | 10.34580 | 35986 ft | 496 kts | 304° |
| 2026-05-04 22:16 | 50.42849 | 10.26079 | 35987 ft | 496 kts | 304° |
| 2026-05-04 22:17 | 50.47114 | 10.17558 | 35977 ft | 496 kts | 303° |
| 2026-05-04 22:17 | 50.51373 | 10.09022 | 35975 ft | 496 kts | 303° |
| 2026-05-04 22:18 | 50.55619 | 10.00484 | 36000 ft | 496 kts | 303° |
| 2026-05-04 22:18 | 50.59781 | 9.92086 | 35980 ft | 496 kts | 303° |
| 2026-05-04 22:19 | 50.64012 | 9.83522 | 36004 ft | 496 kts | 303° |
| 2026-05-04 22:19 | 50.68244 | 9.74926 | 35987 ft | 497 kts | 303° |
| 2026-05-04 22:20 | 50.72473 | 9.66307 | 35991 ft | 497 kts | 303° |
| 2026-05-04 22:20 | 50.76694 | 9.57679 | 35999 ft | 497 kts | 303° |
| 2026-05-04 22:21 | 50.80887 | 9.49078 | 35995 ft | 497 kts | 303° |
| 2026-05-04 22:21 | 50.85127 | 9.40352 | 36007 ft | 497 kts | 303° |
| 2026-05-04 22:22 | 50.89338 | 9.31658 | 35998 ft | 497 kts | 303° |
| 2026-05-04 22:22 | 50.93537 | 9.22958 | 35991 ft | 497 kts | 303° |
| 2026-05-04 22:23 | 50.97730 | 9.14243 | 36001 ft | 497 kts | 303° |
| 2026-05-04 22:23 | 51.01880 | 9.05586 | 35997 ft | 496 kts | 302° |
| 2026-05-04 22:24 | 51.05979 | 8.97008 | 35990 ft | 495 kts | 302° |
| 2026-05-04 22:24 | 51.10136 | 8.88280 | 35990 ft | 494 kts | 302° |
| 2026-05-04 22:25 | 51.14287 | 8.79558 | 35991 ft | 494 kts | 303° |
| 2026-05-04 22:25 | 51.18594 | 8.71019 | 35995 ft | 495 kts | 304° |
| 2026-05-04 22:26 | 51.22948 | 8.62515 | 35993 ft | 495 kts | 304° |
| 2026-05-04 22:26 | 51.27267 | 8.53952 | 36003 ft | 495 kts | 304° |
| 2026-05-04 22:27 | 51.31573 | 8.45363 | 35988 ft | 495 kts | 304° |
| 2026-05-04 22:27 | 51.36292 | 8.37291 | 35994 ft | 498 kts | 311° |
| 2026-05-04 22:28 | 51.41281 | 8.29579 | 35989 ft | 499 kts | 311° |
| 2026-05-04 22:28 | 51.46265 | 8.21855 | 35984 ft | 498 kts | 311° |
| 2026-05-04 22:29 | 51.51217 | 8.14075 | 35987 ft | 499 kts | 310° |
| 2026-05-04 22:29 | 51.56163 | 8.06242 | 35977 ft | 499 kts | 310° |
| 2026-05-04 22:30 | 51.60534 | 7.97993 | 35956 ft | 480 kts | 297° |
| 2026-05-04 22:30 | 51.62145 | 7.93424 | 35939 ft | 459 kts | 291° |
| 2026-05-04 22:30 | 51.63402 | 7.88801 | 35609 ft | 445 kts | 283° |
| 2026-05-04 22:30 | 51.64255 | 7.84078 | 35216 ft | 435 kts | 280° |
| 2026-05-04 22:31 | 51.65028 | 7.79397 | 34751 ft | 431 kts | 279° |
| 2026-05-04 22:31 | 51.65781 | 7.74746 | 34297 ft | 427 kts | 279° |
| 2026-05-04 22:31 | 51.66527 | 7.70141 | 33797 ft | 424 kts | 279° |
| 2026-05-04 22:31 | 51.67274 | 7.65564 | 33260 ft | 421 kts | 279° |
| 2026-05-04 22:32 | 51.68019 | 7.61027 | 32766 ft | 417 kts | 279° |
| 2026-05-04 22:32 | 51.68761 | 7.56536 | 32298 ft | 413 kts | 279° |
| 2026-05-04 22:32 | 51.69498 | 7.52085 | 31825 ft | 409 kts | 279° |
| 2026-05-04 22:32 | 51.70227 | 7.47678 | 31361 ft | 406 kts | 279° |
| 2026-05-04 22:33 | 51.70959 | 7.43224 | 30929 ft | 422 kts | 279° |
| 2026-05-04 22:33 | 51.71720 | 7.38533 | 30459 ft | 448 kts | 279° |
| 2026-05-04 22:33 | 51.72530 | 7.33520 | 29950 ft | 473 kts | 279° |
| 2026-05-04 22:33 | 51.73381 | 7.28270 | 29290 ft | 496 kts | 280° |
| 2026-05-04 22:34 | 51.74272 | 7.22811 | 28824 ft | 506 kts | 280° |
| 2026-05-04 22:34 | 51.75163 | 7.17395 | 28202 ft | 494 kts | 281° |
| 2026-05-04 22:34 | 51.76041 | 7.12079 | 27636 ft | 485 kts | 281° |
| 2026-05-04 22:34 | 51.76886 | 7.06921 | 26987 ft | 481 kts | 281° |
| 2026-05-04 22:35 | 51.77746 | 7.01594 | 26634 ft | 498 kts | 281° |
| 2026-05-04 22:35 | 51.78586 | 6.96356 | 26220 ft | 497 kts | 281° |
| 2026-05-04 22:35 | 51.79448 | 6.90976 | 25418 ft | 491 kts | 281° |
| 2026-05-04 22:35 | 51.80290 | 6.85722 | 25065 ft | 475 kts | 281° |
| 2026-05-04 22:36 | 51.81107 | 6.80621 | 24674 ft | 462 kts | 281° |
| 2026-05-04 22:36 | 51.81898 | 6.75653 | 24367 ft | 449 kts | 281° |
| 2026-05-04 22:36 | 51.82658 | 6.70860 | 24277 ft | 432 kts | 281° |
| 2026-05-04 22:36 | 51.83390 | 6.66237 | 24181 ft | 417 kts | 281° |
| 2026-05-04 22:37 | 51.84093 | 6.61772 | 24093 ft | 402 kts | 281° |
| 2026-05-04 22:37 | 51.84771 | 6.57454 | 23958 ft | 391 kts | 281° |
| 2026-05-04 22:37 | 51.85428 | 6.53253 | 23748 ft | 382 kts | 281° |
| 2026-05-04 22:37 | 51.86072 | 6.49114 | 23359 ft | 378 kts | 281° |
| 2026-05-04 22:38 | 51.86711 | 6.44989 | 22840 ft | 377 kts | 281° |
| 2026-05-04 22:38 | 51.87347 | 6.40883 | 22345 ft | 376 kts | 281° |
| 2026-05-04 22:38 | 51.87979 | 6.36788 | 21869 ft | 374 kts | 282° |
| 2026-05-04 22:38 | 51.88608 | 6.32712 | 21428 ft | 372 kts | 282° |
| 2026-05-04 22:39 | 51.89234 | 6.28649 | 20920 ft | 372 kts | 282° |
| 2026-05-04 22:39 | 51.89858 | 6.24592 | 20464 ft | 371 kts | 282° |
| 2026-05-04 22:39 | 51.90476 | 6.20558 | 20057 ft | 369 kts | 283° |
| 2026-05-04 22:39 | 51.91092 | 6.16536 | 19638 ft | 367 kts | 283° |
| 2026-05-04 22:40 | 51.91703 | 6.12532 | 19215 ft | 365 kts | 283° |
| 2026-05-04 22:40 | 51.92309 | 6.08552 | 18844 ft | 362 kts | 283° |
| 2026-05-04 22:40 | 51.92909 | 6.04603 | 18440 ft | 361 kts | 283° |
| 2026-05-04 22:40 | 51.93512 | 6.00625 | 17937 ft | 362 kts | 283° |
| 2026-05-04 22:41 | 51.94081 | 5.96864 | 17561 ft | 358 kts | 283° |
| 2026-05-04 22:41 | 51.94668 | 5.92968 | 17118 ft | 356 kts | 283° |
| 2026-05-04 22:41 | 51.95251 | 5.89093 | 16745 ft | 353 kts | 284° |
| 2026-05-04 22:41 | 51.95829 | 5.85242 | 16390 ft | 349 kts | 284° |
| 2026-05-04 22:42 | 51.96393 | 5.81472 | 16204 ft | 339 kts | 284° |
| 2026-05-04 22:42 | 51.96943 | 5.77782 | 15835 ft | 336 kts | 284° |
| 2026-05-04 22:42 | 51.97495 | 5.74084 | 15341 ft | 338 kts | 284° |
| 2026-05-04 22:42 | 51.98045 | 5.70384 | 14884 ft | 338 kts | 284° |
| 2026-05-04 22:43 | 51.98594 | 5.66684 | 14518 ft | 336 kts | 284° |
| 2026-05-04 22:43 | 51.99137 | 5.63016 | 14153 ft | 333 kts | 284° |
| 2026-05-04 22:43 | 51.99675 | 5.59373 | 13773 ft | 332 kts | 284° |
| 2026-05-04 22:43 | 52.00209 | 5.55747 | 13363 ft | 330 kts | 284° |
| 2026-05-04 22:44 | 52.00731 | 5.52195 | 13265 ft | 318 kts | 284° |
| 2026-05-04 22:44 | 52.01233 | 5.48766 | 13168 ft | 307 kts | 284° |
| 2026-05-04 22:44 | 52.01719 | 5.45447 | 13047 ft | 297 kts | 283° |
| 2026-05-04 22:44 | 52.02189 | 5.42227 | 12850 ft | 290 kts | 284° |
| 2026-05-04 22:45 | 52.02651 | 5.39059 | 12556 ft | 287 kts | 283° |
| 2026-05-04 22:45 | 52.03559 | 5.32810 | 11891 ft | 285 kts | 283° |
| 2026-05-04 22:45 | 52.04016 | 5.29651 | 11560 ft | 283 kts | 283° |
| 2026-05-04 22:46 | 52.04458 | 5.26596 | 11081 ft | 274 kts | 283° |
| 2026-05-04 22:46 | 52.04884 | 5.23642 | 10598 ft | 273 kts | 283° |
| 2026-05-04 22:46 | 52.05317 | 5.20631 | 10137 ft | 275 kts | 283° |
| 2026-05-04 22:46 | 52.05754 | 5.17588 | 9536 ft | 279 kts | 283° |
| 2026-05-04 22:47 | 52.06195 | 5.14513 | 8741 ft | 279 kts | 283° |
| 2026-05-04 22:47 | 52.06634 | 5.11442 | 7850 ft | 280 kts | 283° |
| 2026-05-04 22:47 | 52.07076 | 5.08345 | 6944 ft | 282 kts | 283° |
| 2026-05-04 22:47 | 52.07520 | 5.05228 | 5978 ft | 285 kts | 283° |
| 2026-05-04 22:48 | 52.07968 | 5.02076 | 4964 ft | 288 kts | 284° |
| 2026-05-04 22:48 | 52.08401 | 4.99028 | 4002 ft | 289 kts | 284° |
| 2026-05-04 22:48 | 52.08852 | 4.95844 | 3010 ft | 290 kts | 284° |
| 2026-05-04 22:48 | 52.09299 | 4.92692 | 2387 ft | 278 kts | 285° |
| 2026-05-04 22:49 | 52.09711 | 4.89755 | 2159 ft | 256 kts | 285° |
| 2026-05-04 22:49 | 52.10092 | 4.87037 | 1987 ft | 238 kts | 285° |
| 2026-05-04 22:49 | 52.10468 | 4.84368 | 2026 ft | 247 kts | 285° |
| 2026-05-04 22:49 | 52.10888 | 4.81675 | 1991 ft | 240 kts | 295° |
| 2026-05-04 22:50 | 52.11855 | 4.79600 | 2040 ft | 226 kts | 326° |
| 2026-05-04 22:50 | 52.13175 | 4.78366 | 2005 ft | 214 kts | 336° |
| 2026-05-04 22:50 | 52.14036 | 4.77660 | 1990 ft | 203 kts | 337° |
| 2026-05-04 22:50 | 52.15263 | 4.76881 | 1952 ft | 174 kts | 358° |
| 2026-05-04 22:51 | 52.16412 | 4.76831 | 2006 ft | 162 kts | 0° |
| 2026-05-04 22:51 | 52.17533 | 4.76747 | 2011 ft | 158 kts | 2° |
| 2026-05-04 22:51 | 52.18582 | 4.76778 | 2014 ft | 144 kts | 5° |
| 2026-05-04 22:51 | 52.19560 | 4.76855 | 1909 ft | 140 kts | 6° |
| 2026-05-04 22:52 | 52.20518 | 4.76941 | 1722 ft | 135 kts | 6° |
| 2026-05-04 22:52 | 52.21450 | 4.77027 | 1532 ft | 135 kts | 6° |
| 2026-05-04 22:52 | 52.22401 | 4.77115 | 1356 ft | 138 kts | 7° |
| 2026-05-04 22:52 | 52.23360 | 4.77204 | 1161 ft | 137 kts | 6° |
| 2026-05-04 22:53 | 52.24293 | 4.77291 | 952 ft | 133 kts | 7° |
| 2026-05-04 22:53 | 52.25220 | 4.77398 | 730 ft | 133 kts | 7° |
| 2026-05-04 22:53 | 52.26151 | 4.77484 | 566 ft | 135 kts | 7° |
| 2026-05-04 22:53 | 52.27086 | 4.77588 | 406 ft | 135 kts | 6° |
| 2026-05-04 22:54 | 52.28023 | 4.77653 | 240 ft | 135 kts | 6° |
| 2026-05-04 22:54 | 52.28967 | 4.77728 | 85 ft | 136 kts | 7° |
| 2026-05-04 22:54 | 52.29896 | 4.77822 | 2 ft | 126 kts | 2° |
| 2026-05-04 22:54 | 52.30595 | 4.77876 | 5 ft | 79 kts | 2° |
| 2026-05-04 22:55 | 52.30958 | 4.77804 | 2 ft | 36 kts | 334° |
| 2026-05-04 22:55 | 52.31134 | 4.77629 | 4 ft | 28 kts | 296° |
| 2026-05-04 22:55 | 52.31067 | 4.77489 | 4 ft | 16 kts | 187° |
| 2026-05-04 22:55 | 52.30955 | 4.77473 | 4 ft | 16 kts | 183° |
| 2026-05-04 22:56 | 52.30843 | 4.77465 | 4 ft | 16 kts | 182° |
| 2026-05-04 22:56 | 52.30730 | 4.77458 | 4 ft | 16 kts | 182° |
| 2026-05-04 22:56 | 52.30641 | 4.77381 | 4 ft | 16 kts | 255° |
| 2026-05-04 22:56 | 52.30646 | 4.77195 | 4 ft | 16 kts | 277° |
| 2026-05-04 22:57 | 52.30655 | 4.77029 | 4 ft | 13 kts | 274° |
| 2026-05-04 22:57 | 52.30645 | 4.76886 | 4 ft | 13 kts | 249° |
| 2026-05-04 22:57 | 52.30608 | 4.76754 | 4 ft | 12 kts | 244° |
| 2026-05-04 22:57 | 52.30586 | 4.76714 | 4 ft | 2 kts | 222° |
| 2026-05-04 22:58 | 52.30583 | 4.76710 | 4 ft | 0 kts | 221° |